sensor_id;sensor_type;location;lat;lon;timestamp;P1;durP1;ratioP1;P2;durP2;ratioP2
23617;SDS011;18207;32.078;34.818;2023-04-23T00:02:20;2.53;;;2.05;;
23617;SDS011;18207;32.078;34.818;2023-04-23T00:04:52;1.85;;;1.75;;
23617;SDS011;18207;32.078;34.818;2023-04-23T00:07:34;2.10;;;2.00;;
23617;SDS011;18207;32.078;34.818;2023-04-23T00:10:06;2.47;;;2.28;;
23617;SDS011;18207;32.078;34.818;2023-04-23T00:12:39;2.28;;;2.08;;
23617;SDS011;18207;32.078;34.818;2023-04-23T00:15:11;1.90;;;1.80;;
23617;SDS011;18207;32.078;34.818;2023-04-23T00:17:42;2.10;;;2.00;;
23617;SDS011;18207;32.078;34.818;2023-04-23T00:20:17;2.30;;;2.10;;
23617;SDS011;18207;32.078;34.818;2023-04-23T00:22:49;2.10;;;2.00;;
23617;SDS011;18207;32.078;34.818;2023-04-23T00:25:19;2.28;;;2.15;;
23617;SDS011;18207;32.078;34.818;2023-04-23T00:27:49;2.38;;;2.17;;
23617;SDS011;18207;32.078;34.818;2023-04-23T00:30:19;2.15;;;2.05;;
23617;SDS011;18207;32.078;34.818;2023-04-23T00:32:49;1.95;;;1.85;;
23617;SDS011;18207;32.078;34.818;2023-04-23T00:35:20;2.10;;;2.00;;
23617;SDS011;18207;32.078;34.818;2023-04-23T00:37:52;2.28;;;2.17;;
23617;SDS011;18207;32.078;34.818;2023-04-23T00:40:22;2.05;;;1.95;;
23617;SDS011;18207;32.078;34.818;2023-04-23T00:42:52;2.10;;;2.00;;
23617;SDS011;18207;32.078;34.818;2023-04-23T00:45:24;1.92;;;1.83;;
23617;SDS011;18207;32.078;34.818;2023-04-23T00:47:54;2.25;;;2.05;;
23617;SDS011;18207;32.078;34.818;2023-04-23T00:50:25;2.67;;;2.38;;
23617;SDS011;18207;32.078;34.818;2023-04-23T00:52:57;2.10;;;2.00;;
23617;SDS011;18207;32.078;34.818;2023-04-23T00:55:28;2.08;;;1.98;;
23617;SDS011;18207;32.078;34.818;2023-04-23T00:57:58;2.08;;;1.98;;
23617;SDS011;18207;32.078;34.818;2023-04-23T01:00:28;2.15;;;2.05;;
23617;SDS011;18207;32.078;34.818;2023-04-23T01:02:59;2.22;;;2.13;;
23617;SDS011;18207;32.078;34.818;2023-04-23T01:05:30;2.40;;;2.20;;
23617;SDS011;18207;32.078;34.818;2023-04-23T01:08:02;2.42;;;2.22;;
23617;SDS011;18207;32.078;34.818;2023-04-23T01:10:32;2.35;;;2.15;;
23617;SDS011;18207;32.078;34.818;2023-04-23T01:13:02;2.25;;;2.10;;
23617;SDS011;18207;32.078;34.818;2023-04-23T01:15:33;2.40;;;2.20;;
23617;SDS011;18207;32.078;34.818;2023-04-23T01:18:03;2.33;;;2.20;;
23617;SDS011;18207;32.078;34.818;2023-04-23T01:20:34;2.28;;;2.08;;
23617;SDS011;18207;32.078;34.818;2023-04-23T01:23:07;2.28;;;2.17;;
23617;SDS011;18207;32.078;34.818;2023-04-23T01:25:37;2.25;;;2.10;;
23617;SDS011;18207;32.078;34.818;2023-04-23T01:28:07;2.40;;;2.20;;
23617;SDS011;18207;32.078;34.818;2023-04-23T01:30:37;2.47;;;2.28;;
23617;SDS011;18207;32.078;34.818;2023-04-23T01:33:10;2.63;;;2.42;;
23617;SDS011;18207;32.078;34.818;2023-04-23T01:35:40;2.25;;;2.10;;
23617;SDS011;18207;32.078;34.818;2023-04-23T01:38:13;2.25;;;2.15;;
23617;SDS011;18207;32.078;34.818;2023-04-23T01:40:45;2.33;;;2.20;;
23617;SDS011;18207;32.078;34.818;2023-04-23T01:43:16;2.05;;;1.95;;
23617;SDS011;18207;32.078;34.818;2023-04-23T01:45:46;2.20;;;2.03;;
23617;SDS011;18207;32.078;34.818;2023-04-23T01:48:17;2.28;;;2.15;;
23617;SDS011;18207;32.078;34.818;2023-04-23T01:50:47;2.10;;;2.00;;
23617;SDS011;18207;32.078;34.818;2023-04-23T01:53:21;2.10;;;2.00;;
23617;SDS011;18207;32.078;34.818;2023-04-23T01:55:51;2.10;;;2.00;;
23617;SDS011;18207;32.078;34.818;2023-04-23T01:58:23;2.30;;;2.20;;
23617;SDS011;18207;32.078;34.818;2023-04-23T02:00:53;2.30;;;2.10;;
23617;SDS011;18207;32.078;34.818;2023-04-23T02:03:24;2.05;;;1.95;;
23617;SDS011;18207;32.078;34.818;2023-04-23T02:05:54;2.45;;;2.25;;
23617;SDS011;18207;32.078;34.818;2023-04-23T02:08:28;2.58;;;2.38;;
23617;SDS011;18207;32.078;34.818;2023-04-23T02:10:58;2.40;;;2.28;;
23617;SDS011;18207;32.078;34.818;2023-04-23T02:13:28;2.10;;;2.00;;
23617;SDS011;18207;32.078;34.818;2023-04-23T02:15:58;2.20;;;2.10;;
23617;SDS011;18207;32.078;34.818;2023-04-23T02:18:29;2.40;;;2.15;;
23617;SDS011;18207;32.078;34.818;2023-04-23T02:20:59;2.20;;;2.10;;
23617;SDS011;18207;32.078;34.818;2023-04-23T02:23:32;2.30;;;2.20;;
23617;SDS011;18207;32.078;34.818;2023-04-23T02:26:02;2.05;;;1.95;;
23617;SDS011;18207;32.078;34.818;2023-04-23T02:28:34;2.22;;;2.08;;
23617;SDS011;18207;32.078;34.818;2023-04-23T02:31:07;2.13;;;2.03;;
23617;SDS011;18207;32.078;34.818;2023-04-23T02:33:38;2.20;;;2.10;;
23617;SDS011;18207;32.078;34.818;2023-04-23T02:36:09;2.40;;;2.20;;
23617;SDS011;18207;32.078;34.818;2023-04-23T02:38:41;2.05;;;1.95;;
23617;SDS011;18207;32.078;34.818;2023-04-23T02:41:11;2.20;;;2.10;;
23617;SDS011;18207;32.078;34.818;2023-04-23T02:43:41;2.75;;;2.28;;
23617;SDS011;18207;32.078;34.818;2023-04-23T02:46:11;2.03;;;1.92;;
23617;SDS011;18207;32.078;34.818;2023-04-23T02:48:42;2.15;;;2.05;;
23617;SDS011;18207;32.078;34.818;2023-04-23T02:51:12;1.77;;;1.67;;
23617;SDS011;18207;32.078;34.818;2023-04-23T02:53:45;2.30;;;2.10;;
23617;SDS011;18207;32.078;34.818;2023-04-23T02:56:15;2.25;;;2.05;;
23617;SDS011;18207;32.078;34.818;2023-04-23T02:58:46;2.03;;;1.92;;
23617;SDS011;18207;32.078;34.818;2023-04-23T03:01:16;2.05;;;1.95;;
23617;SDS011;18207;32.078;34.818;2023-04-23T03:03:47;2.20;;;2.10;;
23617;SDS011;18207;32.078;34.818;2023-04-23T03:06:17;2.05;;;1.95;;
23617;SDS011;18207;32.078;34.818;2023-04-23T03:08:48;1.80;;;1.70;;
23617;SDS011;18207;32.078;34.818;2023-04-23T03:11:18;1.98;;;1.88;;
23617;SDS011;18207;32.078;34.818;2023-04-23T03:13:49;2.00;;;1.90;;
23617;SDS011;18207;32.078;34.818;2023-04-23T03:16:19;2.25;;;2.08;;
23617;SDS011;18207;32.078;34.818;2023-04-23T03:18:49;1.92;;;1.83;;
23617;SDS011;18207;32.078;34.818;2023-04-23T03:21:19;2.28;;;2.10;;
23617;SDS011;18207;32.078;34.818;2023-04-23T03:23:51;2.08;;;1.98;;
23617;SDS011;18207;32.078;34.818;2023-04-23T03:26:21;1.92;;;1.83;;
23617;SDS011;18207;32.078;34.818;2023-04-23T03:28:50;2.05;;;1.95;;
23617;SDS011;18207;32.078;34.818;2023-04-23T03:31:20;2.85;;;2.10;;
23617;SDS011;18207;32.078;34.818;2023-04-23T03:33:50;2.00;;;1.90;;
23617;SDS011;18207;32.078;34.818;2023-04-23T03:36:20;2.10;;;2.00;;
23617;SDS011;18207;32.078;34.818;2023-04-23T03:38:52;2.28;;;2.10;;
23617;SDS011;18207;32.078;34.818;2023-04-23T03:41:22;2.38;;;2.17;;
23617;SDS011;18207;32.078;34.818;2023-04-23T03:43:52;2.50;;;2.30;;
23617;SDS011;18207;32.078;34.818;2023-04-23T03:46:23;2.22;;;2.05;;
23617;SDS011;18207;32.078;34.818;2023-04-23T03:48:53;2.55;;;2.35;;
23617;SDS011;18207;32.078;34.818;2023-04-23T03:51:23;2.33;;;2.15;;
23617;SDS011;18207;32.078;34.818;2023-04-23T03:53:55;2.60;;;2.38;;
23617;SDS011;18207;32.078;34.818;2023-04-23T03:56:25;2.40;;;2.30;;
23617;SDS011;18207;32.078;34.818;2023-04-23T03:58:55;2.58;;;2.38;;
23617;SDS011;18207;32.078;34.818;2023-04-23T04:01:26;2.53;;;2.33;;
23617;SDS011;18207;32.078;34.818;2023-04-23T04:03:56;2.60;;;2.40;;
23617;SDS011;18207;32.078;34.818;2023-04-23T04:06:27;2.28;;;2.15;;
23617;SDS011;18207;32.078;34.818;2023-04-23T04:08:59;2.67;;;2.47;;
23617;SDS011;18207;32.078;34.818;2023-04-23T04:11:28;2.50;;;2.30;;
23617;SDS011;18207;32.078;34.818;2023-04-23T04:13:58;2.67;;;2.47;;
23617;SDS011;18207;32.078;34.818;2023-04-23T04:16:28;2.45;;;2.25;;
23617;SDS011;18207;32.078;34.818;2023-04-23T04:18:59;3.35;;;2.40;;
23617;SDS011;18207;32.078;34.818;2023-04-23T04:21:29;2.42;;;2.20;;
23617;SDS011;18207;32.078;34.818;2023-04-23T04:24:01;3.38;;;2.25;;
23617;SDS011;18207;32.078;34.818;2023-04-23T04:26:32;2.70;;;2.30;;
23617;SDS011;18207;32.078;34.818;2023-04-23T04:29:03;3.00;;;2.50;;
23617;SDS011;18207;32.078;34.818;2023-04-23T04:31:33;2.47;;;2.28;;
23617;SDS011;18207;32.078;34.818;2023-04-23T04:34:04;2.42;;;2.22;;
23617;SDS011;18207;32.078;34.818;2023-04-23T04:36:36;2.60;;;2.08;;
23617;SDS011;18207;32.078;34.818;2023-04-23T04:39:09;2.15;;;2.03;;
23617;SDS011;18207;32.078;34.818;2023-04-23T04:41:39;1.98;;;1.88;;
23617;SDS011;18207;32.078;34.818;2023-04-23T04:44:10;2.47;;;1.90;;
23617;SDS011;18207;32.078;34.818;2023-04-23T04:46:42;2.28;;;2.08;;
23617;SDS011;18207;32.078;34.818;2023-04-23T04:49:13;2.70;;;1.90;;
23617;SDS011;18207;32.078;34.818;2023-04-23T04:51:45;1.90;;;1.80;;
23617;SDS011;18207;32.078;34.818;2023-04-23T04:54:17;2.28;;;1.95;;
23617;SDS011;18207;32.078;34.818;2023-04-23T04:56:47;1.63;;;1.52;;
23617;SDS011;18207;32.078;34.818;2023-04-23T04:59:17;1.42;;;1.33;;
23617;SDS011;18207;32.078;34.818;2023-04-23T05:01:47;1.92;;;1.38;;
23617;SDS011;18207;32.078;34.818;2023-04-23T05:04:18;1.25;;;1.20;;
23617;SDS011;18207;32.078;34.818;2023-04-23T05:06:48;1.60;;;1.50;;
23617;SDS011;18207;32.078;34.818;2023-04-23T05:09:20;1.52;;;1.42;;
23617;SDS011;18207;32.078;34.818;2023-04-23T05:11:49;1.10;;;1.10;;
23617;SDS011;18207;32.078;34.818;2023-04-23T05:14:20;1.25;;;1.10;;
23617;SDS011;18207;32.078;34.818;2023-04-23T05:16:51;1.55;;;1.30;;
23617;SDS011;18207;32.078;34.818;2023-04-23T05:19:22;0.95;;;0.90;;
23617;SDS011;18207;32.078;34.818;2023-04-23T05:21:52;0.80;;;0.80;;
23617;SDS011;18207;32.078;34.818;2023-04-23T05:24:24;0.80;;;0.80;;
23617;SDS011;18207;32.078;34.818;2023-04-23T05:26:54;0.80;;;0.80;;
23617;SDS011;18207;32.078;34.818;2023-04-23T05:29:24;0.73;;;0.73;;
23617;SDS011;18207;32.078;34.818;2023-04-23T05:31:55;0.73;;;0.73;;
23617;SDS011;18207;32.078;34.818;2023-04-23T05:34:25;1.13;;;0.90;;
23617;SDS011;18207;32.078;34.818;2023-04-23T05:36:55;0.80;;;0.80;;
23617;SDS011;18207;32.078;34.818;2023-04-23T05:39:27;0.70;;;0.70;;
23617;SDS011;18207;32.078;34.818;2023-04-23T05:41:57;0.80;;;0.80;;
23617;SDS011;18207;32.078;34.818;2023-04-23T05:44:28;1.00;;;0.80;;
23617;SDS011;18207;32.078;34.818;2023-04-23T05:46:58;0.70;;;0.65;;
23617;SDS011;18207;32.078;34.818;2023-04-23T05:49:28;0.93;;;0.77;;
23617;SDS011;18207;32.078;34.818;2023-04-23T05:51:58;0.63;;;0.55;;
23617;SDS011;18207;32.078;34.818;2023-04-23T05:54:30;0.98;;;0.90;;
23617;SDS011;18207;32.078;34.818;2023-04-23T05:57:00;1.10;;;0.98;;
23617;SDS011;18207;32.078;34.818;2023-04-23T05:59:30;0.93;;;0.93;;
23617;SDS011;18207;32.078;34.818;2023-04-23T06:02:02;0.80;;;0.80;;
23617;SDS011;18207;32.078;34.818;2023-04-23T06:04:32;0.82;;;0.70;;
23617;SDS011;18207;32.078;34.818;2023-04-23T06:07:03;1.00;;;1.00;;
23617;SDS011;18207;32.078;34.818;2023-04-23T06:09:36;0.75;;;0.75;;
23617;SDS011;18207;32.078;34.818;2023-04-23T06:12:07;0.73;;;0.73;;
23617;SDS011;18207;32.078;34.818;2023-04-23T06:14:38;0.93;;;0.93;;
23617;SDS011;18207;32.078;34.818;2023-04-23T06:17:08;0.90;;;0.90;;
23617;SDS011;18207;32.078;34.818;2023-04-23T06:19:38;1.00;;;1.00;;
23617;SDS011;18207;32.078;34.818;2023-04-23T06:22:09;0.70;;;0.70;;
23617;SDS011;18207;32.078;34.818;2023-04-23T06:24:41;0.95;;;0.95;;
23617;SDS011;18207;32.078;34.818;2023-04-23T06:27:11;0.82;;;0.82;;
23617;SDS011;18207;32.078;34.818;2023-04-23T06:29:42;1.00;;;0.90;;
23617;SDS011;18207;32.078;34.818;2023-04-23T06:32:11;0.90;;;0.82;;
23617;SDS011;18207;32.078;34.818;2023-04-23T06:34:45;1.25;;;0.75;;
23617;SDS011;18207;32.078;34.818;2023-04-23T06:37:26;0.70;;;0.70;;
23617;SDS011;18207;32.078;34.818;2023-04-23T06:39:59;0.70;;;0.70;;
23617;SDS011;18207;32.078;34.818;2023-04-23T06:42:28;0.63;;;0.63;;
23617;SDS011;18207;32.078;34.818;2023-04-23T06:44:58;0.90;;;0.90;;
23617;SDS011;18207;32.078;34.818;2023-04-23T06:47:31;0.82;;;0.75;;
23617;SDS011;18207;32.078;34.818;2023-04-23T06:50:02;0.80;;;0.52;;
23617;SDS011;18207;32.078;34.818;2023-04-23T06:52:33;0.75;;;0.70;;
23617;SDS011;18207;32.078;34.818;2023-04-23T06:55:07;0.90;;;0.90;;
23617;SDS011;18207;32.078;34.818;2023-04-23T06:57:38;1.00;;;0.95;;
23617;SDS011;18207;32.078;34.818;2023-04-23T07:00:10;0.85;;;0.77;;
23617;SDS011;18207;32.078;34.818;2023-04-23T07:02:41;0.82;;;0.82;;
23617;SDS011;18207;32.078;34.818;2023-04-23T07:05:11;0.60;;;0.60;;
23617;SDS011;18207;32.078;34.818;2023-04-23T07:07:42;0.68;;;0.68;;
23617;SDS011;18207;32.078;34.818;2023-04-23T07:10:13;0.70;;;0.70;;
23617;SDS011;18207;32.078;34.818;2023-04-23T07:12:43;0.57;;;0.57;;
23617;SDS011;18207;32.078;34.818;2023-04-23T07:15:14;1.08;;;0.73;;
23617;SDS011;18207;32.078;34.818;2023-04-23T07:17:44;0.88;;;0.60;;
23617;SDS011;18207;32.078;34.818;2023-04-23T07:20:14;0.85;;;0.82;;
23617;SDS011;18207;32.078;34.818;2023-04-23T07:22:45;0.75;;;0.75;;
23617;SDS011;18207;32.078;34.818;2023-04-23T07:25:16;0.63;;;0.63;;
23617;SDS011;18207;32.078;34.818;2023-04-23T07:27:48;0.88;;;0.88;;
23617;SDS011;18207;32.078;34.818;2023-04-23T07:30:19;0.70;;;0.70;;
23617;SDS011;18207;32.078;34.818;2023-04-23T07:32:52;0.70;;;0.70;;
23617;SDS011;18207;32.078;34.818;2023-04-23T07:35:23;0.75;;;0.75;;
23617;SDS011;18207;32.078;34.818;2023-04-23T07:37:53;0.85;;;0.68;;
23617;SDS011;18207;32.078;34.818;2023-04-23T07:40:26;0.70;;;0.70;;
23617;SDS011;18207;32.078;34.818;2023-04-23T07:42:56;0.65;;;0.65;;
23617;SDS011;18207;32.078;34.818;2023-04-23T07:45:27;0.65;;;0.65;;
23617;SDS011;18207;32.078;34.818;2023-04-23T07:47:56;0.70;;;0.70;;
23617;SDS011;18207;32.078;34.818;2023-04-23T07:50:28;0.52;;;0.52;;
23617;SDS011;18207;32.078;34.818;2023-04-23T07:52:58;0.80;;;0.80;;
23617;SDS011;18207;32.078;34.818;2023-04-23T07:55:30;0.60;;;0.60;;
23617;SDS011;18207;32.078;34.818;2023-04-23T07:58:01;0.75;;;0.75;;
23617;SDS011;18207;32.078;34.818;2023-04-23T08:00:31;0.70;;;0.70;;
23617;SDS011;18207;32.078;34.818;2023-04-23T08:03:02;0.60;;;0.60;;
23617;SDS011;18207;32.078;34.818;2023-04-23T08:05:32;1.17;;;0.82;;
23617;SDS011;18207;32.078;34.818;2023-04-23T08:08:03;0.70;;;0.70;;
23617;SDS011;18207;32.078;34.818;2023-04-23T08:10:35;0.60;;;0.60;;
23617;SDS011;18207;32.078;34.818;2023-04-23T08:13:05;0.40;;;0.40;;
23617;SDS011;18207;32.078;34.818;2023-04-23T08:15:36;0.77;;;0.77;;
23617;SDS011;18207;32.078;34.818;2023-04-23T08:18:06;0.70;;;0.70;;
23617;SDS011;18207;32.078;34.818;2023-04-23T08:20:36;0.75;;;0.75;;
23617;SDS011;18207;32.078;34.818;2023-04-23T08:23:06;0.60;;;0.60;;
23617;SDS011;18207;32.078;34.818;2023-04-23T08:25:38;0.45;;;0.45;;
23617;SDS011;18207;32.078;34.818;2023-04-23T08:28:08;1.42;;;0.73;;
23617;SDS011;18207;32.078;34.818;2023-04-23T08:30:38;0.60;;;0.60;;
23617;SDS011;18207;32.078;34.818;2023-04-23T08:33:08;0.75;;;0.50;;
23617;SDS011;18207;32.078;34.818;2023-04-23T08:35:39;0.65;;;0.45;;
23617;SDS011;18207;32.078;34.818;2023-04-23T08:38:09;0.70;;;0.70;;
23617;SDS011;18207;32.078;34.818;2023-04-23T08:40:41;0.63;;;0.63;;
23617;SDS011;18207;32.078;34.818;2023-04-23T08:43:15;0.70;;;0.70;;
23617;SDS011;18207;32.078;34.818;2023-04-23T08:45:48;0.70;;;0.70;;
23617;SDS011;18207;32.078;34.818;2023-04-23T08:48:18;0.50;;;0.50;;
23617;SDS011;18207;32.078;34.818;2023-04-23T08:50:49;0.60;;;0.60;;
23617;SDS011;18207;32.078;34.818;2023-04-23T08:53:19;0.77;;;0.77;;
23617;SDS011;18207;32.078;34.818;2023-04-23T08:55:56;0.70;;;0.70;;
23617;SDS011;18207;32.078;34.818;2023-04-23T08:58:27;0.68;;;0.57;;
23617;SDS011;18207;32.078;34.818;2023-04-23T09:00:58;0.60;;;0.60;;
23617;SDS011;18207;32.078;34.818;2023-04-23T09:03:29;1.55;;;0.70;;
23617;SDS011;18207;32.078;34.818;2023-04-23T09:06:00;0.82;;;0.80;;
23617;SDS011;18207;32.078;34.818;2023-04-23T09:08:30;0.85;;;0.73;;
23617;SDS011;18207;32.078;34.818;2023-04-23T09:11:03;0.70;;;0.70;;
23617;SDS011;18207;32.078;34.818;2023-04-23T09:13:34;1.52;;;0.80;;
23617;SDS011;18207;32.078;34.818;2023-04-23T09:16:07;1.02;;;0.68;;
23617;SDS011;18207;32.078;34.818;2023-04-23T09:18:38;1.15;;;0.70;;
23617;SDS011;18207;32.078;34.818;2023-04-23T09:21:10;0.60;;;0.60;;
23617;SDS011;18207;32.078;34.818;2023-04-23T09:23:40;0.60;;;0.60;;
23617;SDS011;18207;32.078;34.818;2023-04-23T09:26:14;0.80;;;0.60;;
23617;SDS011;18207;32.078;34.818;2023-04-23T09:28:49;0.55;;;0.52;;
23617;SDS011;18207;32.078;34.818;2023-04-23T09:31:19;1.27;;;0.80;;
23617;SDS011;18207;32.078;34.818;2023-04-23T09:33:50;0.80;;;0.40;;
23617;SDS011;18207;32.078;34.818;2023-04-23T09:36:22;0.55;;;0.55;;
23617;SDS011;18207;32.078;34.818;2023-04-23T09:38:55;0.60;;;0.60;;
23617;SDS011;18207;32.078;34.818;2023-04-23T09:41:28;0.90;;;0.77;;
23617;SDS011;18207;32.078;34.818;2023-04-23T09:43:58;0.60;;;0.60;;
23617;SDS011;18207;32.078;34.818;2023-04-23T09:46:32;0.70;;;0.70;;
23617;SDS011;18207;32.078;34.818;2023-04-23T09:49:04;0.55;;;0.50;;
23617;SDS011;18207;32.078;34.818;2023-04-23T09:51:36;0.60;;;0.47;;
23617;SDS011;18207;32.078;34.818;2023-04-23T09:54:10;0.63;;;0.57;;
23617;SDS011;18207;32.078;34.818;2023-04-23T09:56:44;0.70;;;0.60;;
23617;SDS011;18207;32.078;34.818;2023-04-23T09:59:20;0.50;;;0.50;;
23617;SDS011;18207;32.078;34.818;2023-04-23T10:02:12;0.50;;;0.50;;
23617;SDS011;18207;32.078;34.818;2023-04-23T10:04:43;0.90;;;0.75;;
23617;SDS011;18207;32.078;34.818;2023-04-23T10:07:32;1.15;;;0.60;;
23617;SDS011;18207;32.078;34.818;2023-04-23T10:10:04;0.57;;;0.57;;
23617;SDS011;18207;32.078;34.818;2023-04-23T10:12:38;1.55;;;0.52;;
23617;SDS011;18207;32.078;34.818;2023-04-23T10:15:20;0.50;;;0.50;;
23617;SDS011;18207;32.078;34.818;2023-04-23T10:17:54;0.70;;;0.70;;
23617;SDS011;18207;32.078;34.818;2023-04-23T10:20:25;0.60;;;0.50;;
23617;SDS011;18207;32.078;34.818;2023-04-23T10:22:55;0.40;;;0.40;;
23617;SDS011;18207;32.078;34.818;2023-04-23T10:25:28;0.55;;;0.55;;
23617;SDS011;18207;32.078;34.818;2023-04-23T10:28:01;0.60;;;0.60;;
23617;SDS011;18207;32.078;34.818;2023-04-23T10:30:33;1.30;;;0.88;;
23617;SDS011;18207;32.078;34.818;2023-04-23T10:33:05;0.52;;;0.52;;
23617;SDS011;18207;32.078;34.818;2023-04-23T10:35:54;0.50;;;0.50;;
23617;SDS011;18207;32.078;34.818;2023-04-23T10:38:25;0.52;;;0.52;;
23617;SDS011;18207;32.078;34.818;2023-04-23T10:40:57;1.42;;;0.60;;
23617;SDS011;18207;32.078;34.818;2023-04-23T10:43:31;0.63;;;0.63;;
23617;SDS011;18207;32.078;34.818;2023-04-23T10:46:01;0.73;;;0.63;;
23617;SDS011;18207;32.078;34.818;2023-04-23T10:51:34;0.52;;;0.52;;
23617;SDS011;18207;32.078;34.818;2023-04-23T10:54:08;0.63;;;0.63;;
23617;SDS011;18207;32.078;34.818;2023-04-23T10:56:38;0.77;;;0.70;;
23617;SDS011;18207;32.078;34.818;2023-04-23T11:02:04;0.70;;;0.70;;
23617;SDS011;18207;32.078;34.818;2023-04-23T11:04:40;0.57;;;0.57;;
23617;SDS011;18207;32.078;34.818;2023-04-23T11:07:14;0.70;;;0.70;;
23617;SDS011;18207;32.078;34.818;2023-04-23T11:09:48;0.82;;;0.68;;
23617;SDS011;18207;32.078;34.818;2023-04-23T11:12:29;0.70;;;0.70;;
23617;SDS011;18207;32.078;34.818;2023-04-23T11:15:10;0.55;;;0.55;;
23617;SDS011;18207;32.078;34.818;2023-04-23T11:17:57;0.70;;;0.70;;
23617;SDS011;18207;32.078;34.818;2023-04-23T11:20:29;0.75;;;0.75;;
23617;SDS011;18207;32.078;34.818;2023-04-23T11:23:00;0.60;;;0.60;;
23617;SDS011;18207;32.078;34.818;2023-04-23T11:25:32;0.68;;;0.68;;
23617;SDS011;18207;32.078;34.818;2023-04-23T11:28:07;0.60;;;0.60;;
23617;SDS011;18207;32.078;34.818;2023-04-23T11:30:39;0.47;;;0.45;;
23617;SDS011;18207;32.078;34.818;2023-04-23T11:33:09;0.60;;;0.60;;
23617;SDS011;18207;32.078;34.818;2023-04-23T11:35:40;0.70;;;0.70;;
23617;SDS011;18207;32.078;34.818;2023-04-23T11:38:10;0.47;;;0.47;;
23617;SDS011;18207;32.078;34.818;2023-04-23T11:40:40;0.52;;;0.52;;
23617;SDS011;18207;32.078;34.818;2023-04-23T11:43:17;0.60;;;0.60;;
23617;SDS011;18207;32.078;34.818;2023-04-23T11:45:49;0.50;;;0.50;;
23617;SDS011;18207;32.078;34.818;2023-04-23T11:48:19;0.50;;;0.50;;
23617;SDS011;18207;32.078;34.818;2023-04-23T11:50:49;0.63;;;0.63;;
23617;SDS011;18207;32.078;34.818;2023-04-23T11:53:21;0.70;;;0.70;;
23617;SDS011;18207;32.078;34.818;2023-04-23T11:55:52;0.60;;;0.60;;
23617;SDS011;18207;32.078;34.818;2023-04-23T11:58:22;0.75;;;0.75;;
23617;SDS011;18207;32.078;34.818;2023-04-23T12:00:57;0.80;;;0.80;;
23617;SDS011;18207;32.078;34.818;2023-04-23T12:03:28;0.70;;;0.70;;
23617;SDS011;18207;32.078;34.818;2023-04-23T12:05:58;0.73;;;0.73;;
23617;SDS011;18207;32.078;34.818;2023-04-23T12:08:30;0.82;;;0.75;;
23617;SDS011;18207;32.078;34.818;2023-04-23T12:11:02;0.90;;;0.60;;
23617;SDS011;18207;32.078;34.818;2023-04-23T12:13:33;0.85;;;0.85;;
23617;SDS011;18207;32.078;34.818;2023-04-23T12:16:05;0.70;;;0.70;;
23617;SDS011;18207;32.078;34.818;2023-04-23T12:18:38;0.68;;;0.68;;
23617;SDS011;18207;32.078;34.818;2023-04-23T12:21:10;0.88;;;0.88;;
23617;SDS011;18207;32.078;34.818;2023-04-23T12:23:41;0.90;;;0.90;;
23617;SDS011;18207;32.078;34.818;2023-04-23T12:26:12;0.88;;;0.88;;
23617;SDS011;18207;32.078;34.818;2023-04-23T12:28:45;0.80;;;0.63;;
23617;SDS011;18207;32.078;34.818;2023-04-23T12:31:20;0.73;;;0.73;;
23617;SDS011;18207;32.078;34.818;2023-04-23T12:33:57;0.90;;;0.70;;
23617;SDS011;18207;32.078;34.818;2023-04-23T12:36:31;0.80;;;0.80;;
23617;SDS011;18207;32.078;34.818;2023-04-23T12:39:19;0.85;;;0.85;;
23617;SDS011;18207;32.078;34.818;2023-04-23T12:41:52;0.95;;;0.90;;
23617;SDS011;18207;32.078;34.818;2023-04-23T12:44:25;1.00;;;1.00;;
23617;SDS011;18207;32.078;34.818;2023-04-23T12:46:58;0.82;;;0.82;;
23617;SDS011;18207;32.078;34.818;2023-04-23T12:49:31;0.80;;;0.80;;
23617;SDS011;18207;32.078;34.818;2023-04-23T12:52:03;0.85;;;0.85;;
23617;SDS011;18207;32.078;34.818;2023-04-23T12:54:38;0.90;;;0.90;;
23617;SDS011;18207;32.078;34.818;2023-04-23T12:57:10;0.90;;;0.60;;
23617;SDS011;18207;32.078;34.818;2023-04-23T12:59:41;0.75;;;0.75;;
23617;SDS011;18207;32.078;34.818;2023-04-23T13:02:14;0.93;;;0.90;;
23617;SDS011;18207;32.078;34.818;2023-04-23T13:04:44;0.80;;;0.80;;
23617;SDS011;18207;32.078;34.818;2023-04-23T13:07:14;1.00;;;1.00;;
23617;SDS011;18207;32.078;34.818;2023-04-23T13:09:44;2.17;;;1.10;;
23617;SDS011;18207;32.078;34.818;2023-04-23T13:12:14;1.00;;;1.00;;
23617;SDS011;18207;32.078;34.818;2023-04-23T13:14:44;0.88;;;0.88;;
23617;SDS011;18207;32.078;34.818;2023-04-23T13:17:16;0.90;;;0.90;;
23617;SDS011;18207;32.078;34.818;2023-04-23T13:19:47;0.70;;;0.70;;
23617;SDS011;18207;32.078;34.818;2023-04-23T13:22:17;0.70;;;0.70;;
23617;SDS011;18207;32.078;34.818;2023-04-23T13:24:47;1.00;;;1.00;;
23617;SDS011;18207;32.078;34.818;2023-04-23T13:27:17;0.75;;;0.68;;
23617;SDS011;18207;32.078;34.818;2023-04-23T13:29:46;0.80;;;0.80;;
23617;SDS011;18207;32.078;34.818;2023-04-23T13:32:18;0.70;;;0.65;;
23617;SDS011;18207;32.078;34.818;2023-04-23T13:34:49;0.75;;;0.75;;
23617;SDS011;18207;32.078;34.818;2023-04-23T13:37:19;0.80;;;0.80;;
23617;SDS011;18207;32.078;34.818;2023-04-23T13:39:50;0.65;;;0.65;;
23617;SDS011;18207;32.078;34.818;2023-04-23T13:42:20;0.98;;;0.98;;
23617;SDS011;18207;32.078;34.818;2023-04-23T13:44:50;0.88;;;0.88;;
23617;SDS011;18207;32.078;34.818;2023-04-23T13:47:21;1.10;;;1.00;;
23617;SDS011;18207;32.078;34.818;2023-04-23T13:49:53;0.90;;;0.90;;
23617;SDS011;18207;32.078;34.818;2023-04-23T13:52:23;0.95;;;0.95;;
23617;SDS011;18207;32.078;34.818;2023-04-23T13:54:53;0.75;;;0.75;;
23617;SDS011;18207;32.078;34.818;2023-04-23T13:57:23;0.80;;;0.80;;
23617;SDS011;18207;32.078;34.818;2023-04-23T13:59:54;0.70;;;0.70;;
23617;SDS011;18207;32.078;34.818;2023-04-23T14:02:27;0.80;;;0.80;;
23617;SDS011;18207;32.078;34.818;2023-04-23T14:04:58;1.02;;;1.02;;
23617;SDS011;18207;32.078;34.818;2023-04-23T14:07:29;0.80;;;0.80;;
23617;SDS011;18207;32.078;34.818;2023-04-23T14:09:59;0.80;;;0.80;;
23617;SDS011;18207;32.078;34.818;2023-04-23T14:12:30;0.63;;;0.63;;
23617;SDS011;18207;32.078;34.818;2023-04-23T14:15:00;0.80;;;0.80;;
23617;SDS011;18207;32.078;34.818;2023-04-23T14:17:32;0.90;;;0.90;;
23617;SDS011;18207;32.078;34.818;2023-04-23T14:20:03;0.82;;;0.82;;
23617;SDS011;18207;32.078;34.818;2023-04-23T14:22:35;1.17;;;1.08;;
23617;SDS011;18207;32.078;34.818;2023-04-23T14:25:07;0.80;;;0.80;;
23617;SDS011;18207;32.078;34.818;2023-04-23T14:27:44;0.95;;;0.95;;
23617;SDS011;18207;32.078;34.818;2023-04-23T14:30:19;0.80;;;0.80;;
23617;SDS011;18207;32.078;34.818;2023-04-23T14:32:52;0.90;;;0.90;;
23617;SDS011;18207;32.078;34.818;2023-04-23T14:35:22;1.15;;;1.00;;
23617;SDS011;18207;32.078;34.818;2023-04-23T14:38:07;1.25;;;0.90;;
23617;SDS011;18207;32.078;34.818;2023-04-23T14:40:37;0.90;;;0.90;;
23617;SDS011;18207;32.078;34.818;2023-04-23T14:43:08;1.00;;;1.00;;
23617;SDS011;18207;32.078;34.818;2023-04-23T14:45:41;0.90;;;0.88;;
23617;SDS011;18207;32.078;34.818;2023-04-23T14:48:15;0.85;;;0.85;;
23617;SDS011;18207;32.078;34.818;2023-04-23T14:50:45;0.90;;;0.90;;
23617;SDS011;18207;32.078;34.818;2023-04-23T14:53:15;1.08;;;1.00;;
23617;SDS011;18207;32.078;34.818;2023-04-23T14:55:47;0.93;;;0.93;;
23617;SDS011;18207;32.078;34.818;2023-04-23T14:58:17;1.38;;;1.00;;
23617;SDS011;18207;32.078;34.818;2023-04-23T15:00:47;0.65;;;0.65;;
23617;SDS011;18207;32.078;34.818;2023-04-23T15:03:19;0.82;;;0.82;;
23617;SDS011;18207;32.078;34.818;2023-04-23T15:05:50;0.90;;;0.90;;